createdAt,value
2019-04-25T00:02:23.537Z,-71
2019-04-25T00:04:52.869Z,-72
2019-04-25T00:14:58.425Z,-72
2019-04-25T00:17:28.088Z,-73
2019-04-25T00:19:57.479Z,-72
2019-04-25T00:22:31.705Z,-72
2019-04-25T00:25:21.807Z,-72
2019-04-25T00:27:51.720Z,-72
2019-04-25T00:30:22.632Z,-72
2019-04-25T00:32:52.106Z,-72
2019-04-25T00:35:21.692Z,-72
2019-04-25T00:37:52.515Z,-72
2019-04-25T00:40:22.200Z,-72
2019-04-25T00:42:53.360Z,-72
2019-04-25T00:45:22.466Z,-73
2019-04-25T00:47:52.730Z,-73
2019-04-25T00:50:22.189Z,-72
2019-04-25T00:52:53.315Z,-72
2019-04-25T00:55:28.653Z,-72
2019-04-25T00:57:54.811Z,-72
2019-04-25T01:00:43.443Z,-73
2019-04-25T01:03:14.678Z,-72
2019-04-25T01:05:44.852Z,-72
2019-04-25T01:08:15.154Z,-72
2019-04-25T01:10:44.479Z,-72
2019-04-25T01:13:13.672Z,-72
2019-04-25T01:15:43.157Z,-72
2019-04-25T01:18:12.422Z,-72
2019-04-25T01:20:43.315Z,-72
2019-04-25T01:23:13.778Z,-69
2019-04-25T01:25:44.666Z,-70
2019-04-25T01:28:14.236Z,-70
2019-04-25T01:30:43.918Z,-70
2019-04-25T01:33:13.603Z,-71
2019-04-25T01:35:51.063Z,-71
2019-04-25T01:38:23.734Z,-72
2019-04-25T01:41:04.606Z,-71
2019-04-25T01:43:38.302Z,-72
2019-04-25T01:46:08.289Z,-71
2019-04-25T01:48:37.687Z,-72
2019-04-25T01:51:07.254Z,-72
2019-04-25T01:53:36.546Z,-72
2019-04-25T01:56:07.856Z,-72
2019-04-25T01:58:37.137Z,-71
2019-04-25T02:01:06.707Z,-72
2019-04-25T02:03:36.203Z,-71
2019-04-25T02:06:05.820Z,-71
2019-04-25T02:08:35.270Z,-72
2019-04-25T02:11:09.091Z,-71
2019-04-25T02:13:38.839Z,-72
2019-04-25T02:16:08.794Z,-72
2019-04-25T02:18:44.286Z,-72
2019-04-25T02:21:13.814Z,-72
2019-04-25T02:23:44.165Z,-71
2019-04-25T02:26:16.809Z,-71
2019-04-25T02:28:44.598Z,-71
2019-04-25T02:31:17.517Z,-71
2019-04-25T02:33:44.955Z,-71
2019-04-25T02:36:15.105Z,-71
2019-04-25T02:38:44.718Z,-71
2019-04-25T02:41:14.746Z,-71
2019-04-25T02:43:45.019Z,-71
2019-04-25T02:46:19.185Z,-71
2019-04-25T02:49:09.139Z,-72
2019-04-25T02:51:41.256Z,-72
2019-04-25T02:54:10.451Z,-72
2019-04-25T02:56:39.924Z,-71
2019-04-25T02:59:09.493Z,-71
2019-04-25T03:01:38.729Z,-71
2019-04-25T03:04:11.182Z,-72
2019-04-25T03:06:39.113Z,-71
2019-04-25T03:09:10.089Z,-71
2019-04-25T03:11:39.906Z,-71
2019-04-25T03:14:10.243Z,-71
2019-04-25T03:16:39.866Z,-71
2019-04-25T03:19:19.928Z,-71
2019-04-25T03:21:56.623Z,-72
2019-04-25T03:24:25.985Z,-72
2019-04-25T03:26:55.129Z,-72
2019-04-25T03:29:24.773Z,-72
2019-04-25T03:31:56.010Z,-71
2019-04-25T03:34:26.013Z,-72
2019-04-25T03:36:55.255Z,-71
2019-04-25T03:39:26.943Z,-71
2019-04-25T03:41:55.850Z,-71
2019-04-25T03:44:25.802Z,-72
2019-04-25T03:46:55.298Z,-68
2019-04-25T03:49:24.896Z,-67
2019-04-25T03:51:54.378Z,-69
2019-04-25T03:54:23.693Z,-69
2019-04-25T03:56:55.918Z,-69
2019-04-25T03:59:24.233Z,-66
2019-04-25T04:01:53.889Z,-67
2019-04-25T04:04:23.829Z,-67
2019-04-25T04:06:53.800Z,-67
2019-04-25T04:09:24.053Z,-67
2019-04-25T04:11:53.569Z,-67
2019-04-25T04:14:23.993Z,-67
2019-04-25T04:17:10.860Z,-66
2019-04-25T04:19:57.361Z,-67
2019-04-25T04:22:40.385Z,-67
2019-04-25T04:25:11.653Z,-67
2019-04-25T04:27:41.286Z,-67
2019-04-25T04:30:10.748Z,-67
2019-04-25T04:32:46.178Z,-67
2019-04-25T04:35:16.244Z,-67
2019-04-25T04:37:46.333Z,-67
2019-04-25T04:40:17.248Z,-66
2019-04-25T04:42:46.371Z,-67
2019-04-25T04:45:16.620Z,-67
2019-04-25T04:47:46.510Z,-67
2019-04-25T04:50:16.573Z,-67
2019-04-25T04:52:46.773Z,-67
2019-04-25T04:55:17.382Z,-67
2019-04-25T04:57:46.793Z,-67
2019-04-25T05:00:16.836Z,-67
2019-04-25T05:03:04.494Z,-67
2019-04-25T05:05:35.668Z,-68
2019-04-25T05:08:10.914Z,-68
2019-04-25T05:10:40.425Z,-67
2019-04-25T05:13:09.734Z,-67
2019-04-25T05:15:39.137Z,-67
2019-04-25T05:18:08.635Z,-67
2019-04-25T05:20:37.842Z,-67
2019-04-25T05:23:08.909Z,-67
2019-04-25T05:25:37.981Z,-67
2019-04-25T05:28:07.476Z,-68
2019-04-25T05:30:41.365Z,-67
2019-04-25T05:33:10.890Z,-67
2019-04-25T05:35:40.397Z,-68
2019-04-25T05:38:09.713Z,-67
2019-04-25T05:40:49.341Z,-67
2019-04-25T05:43:18.554Z,-67
2019-04-25T05:45:47.755Z,-67
2019-04-25T05:48:17.182Z,-67
2019-04-25T05:50:46.861Z,-67
2019-04-25T05:53:16.320Z,-68
2019-04-25T05:55:47.001Z,-67
2019-04-25T05:58:16.913Z,-67
2019-04-25T06:00:46.431Z,-68
2019-04-25T06:03:17.184Z,-66
2019-04-25T06:05:46.673Z,-67
2019-04-25T06:08:17.611Z,-67
2019-04-25T06:10:48.654Z,-65
2019-04-25T06:13:20.209Z,-66
2019-04-25T06:15:51.250Z,-65
2019-04-25T06:18:25.974Z,-66
2019-04-25T06:20:55.680Z,-66
2019-04-25T06:23:46.067Z,-66
2019-04-25T06:26:26.727Z,-67
2019-04-25T06:28:56.908Z,-66
2019-04-25T06:31:19.972Z,-66
2019-04-25T06:33:49.164Z,-67
2019-04-25T06:36:18.536Z,-66
2019-04-25T06:38:48.027Z,-66
2019-04-25T06:41:17.447Z,-66
2019-04-25T06:43:48.579Z,-66
2019-04-25T06:46:24.814Z,-66
2019-04-25T06:48:56.091Z,-66
2019-04-25T06:51:27.209Z,-66
2019-04-25T06:53:57.475Z,-66
2019-04-25T06:56:27.448Z,-66
2019-04-25T06:58:56.991Z,-66
2019-04-25T07:01:27.648Z,-66
2019-04-25T07:03:57.704Z,-67
2019-04-25T07:06:27.984Z,-66
2019-04-25T07:08:57.773Z,-66
2019-04-25T07:11:27.035Z,-66
2019-04-25T07:13:57.470Z,-66
2019-04-25T07:16:27.276Z,-66
2019-04-25T07:18:59.235Z,-66
2019-04-25T07:21:30.277Z,-67
2019-04-25T07:24:00.833Z,-67
2019-04-25T07:26:36.866Z,-68
2019-04-25T07:32:01.640Z,-67
2019-04-25T07:34:32.093Z,-66
2019-04-25T07:37:03.384Z,-66
2019-04-25T07:39:34.422Z,-66
2019-04-25T07:42:04.149Z,-66
2019-04-25T07:44:45.776Z,-66
2019-04-25T07:47:05.408Z,-66
2019-04-25T07:49:35.753Z,-66
2019-04-25T07:52:05.681Z,-67
2019-04-25T07:54:35.511Z,-66
2019-04-25T07:57:06.385Z,-67
2019-04-25T07:59:36.398Z,-66
2019-04-25T08:02:05.959Z,-66
2019-04-25T08:04:37.082Z,-66
2019-04-25T08:07:06.596Z,-67
2019-04-25T08:09:37.053Z,-67
2019-04-25T08:12:10.896Z,-67
2019-04-25T08:14:45.774Z,-67
2019-04-25T08:17:16.684Z,-67
2019-04-25T08:19:46.534Z,-67
2019-04-25T08:22:15.936Z,-67
2019-04-25T08:24:45.883Z,-67
2019-04-25T08:27:15.348Z,-67
2019-04-25T08:29:45.526Z,-67
2019-04-25T08:32:15.827Z,-67
2019-04-25T08:34:45.557Z,-67
2019-04-25T08:37:19.104Z,-67
2019-04-25T08:39:46.169Z,-67
2019-04-25T08:42:15.392Z,-67
2019-04-25T08:44:45.040Z,-67
2019-04-25T08:47:14.532Z,-67
2019-04-25T08:49:49.536Z,-68
2019-04-25T08:52:19.137Z,-67
2019-04-25T08:54:50.579Z,-67
2019-04-25T08:57:21.714Z,-68
2019-04-25T08:59:53.277Z,-67
2019-04-25T09:02:37.171Z,-67
2019-04-25T09:05:24.363Z,-67
2019-04-25T09:07:54.346Z,-67
2019-04-25T09:10:24.091Z,-67
2019-04-25T09:12:53.872Z,-67
2019-04-25T09:15:24.255Z,-67
2019-04-25T09:17:54.716Z,-67
2019-04-25T09:20:24.350Z,-67
2019-04-25T09:22:54.397Z,-67
2019-04-25T09:25:24.200Z,-67
2019-04-25T09:27:54.329Z,-66
2019-04-25T09:30:24.223Z,-68
2019-04-25T09:32:53.557Z,-66
2019-04-25T09:35:23.656Z,-66
2019-04-25T09:37:53.713Z,-68
2019-04-25T09:40:23.994Z,-65
2019-04-25T09:42:53.803Z,-66
2019-04-25T09:45:28.526Z,-67
2019-04-25T09:48:05.289Z,-68
2019-04-25T09:50:46.377Z,-66
2019-04-25T09:53:23.162Z,-66
2019-04-25T09:56:05.787Z,-66
2019-04-25T09:58:48.307Z,-65
2019-04-25T10:01:17.899Z,-69
2019-04-25T10:03:47.456Z,-67
2019-04-25T10:06:18.249Z,-69
2019-04-25T10:08:47.792Z,-68
2019-04-25T10:11:17.357Z,-68
2019-04-25T10:14:06.118Z,-69
2019-04-25T10:16:35.314Z,-68
2019-04-25T10:19:05.114Z,-68
2019-04-25T10:21:34.428Z,-68
2019-04-25T10:24:04.126Z,-68
2019-04-25T10:26:34.932Z,-68
2019-04-25T10:29:04.387Z,-68
2019-04-25T10:31:33.937Z,-68
2019-04-25T10:34:03.826Z,-68
2019-04-25T10:36:33.758Z,-68
2019-04-25T10:39:08.614Z,-68
2019-04-25T10:41:35.925Z,-67
2019-04-25T10:44:06.023Z,-68
2019-04-25T10:46:35.428Z,-68
2019-04-25T10:49:04.936Z,-68
2019-04-25T10:51:34.442Z,-68
2019-04-25T10:54:04.258Z,-68
2019-04-25T10:56:33.853Z,-68
2019-04-25T10:59:04.222Z,-68
2019-04-25T11:01:34.007Z,-68
2019-04-25T11:04:07.909Z,-69
2019-04-25T11:06:37.315Z,-68
2019-04-25T11:09:08.773Z,-69
2019-04-25T11:11:38.374Z,-69
2019-04-25T11:14:07.693Z,-68
2019-04-25T11:16:37.280Z,-68
2019-04-25T11:19:07.042Z,-68
2019-04-25T11:21:36.506Z,-68
2019-04-25T11:24:06.106Z,-68
2019-04-25T11:26:35.329Z,-69
2019-04-25T11:29:05.322Z,-68
2019-04-25T11:31:36.596Z,-68
2019-04-25T11:34:06.188Z,-68
2019-04-25T11:36:35.385Z,-68
2019-04-25T11:39:28.125Z,-68
2019-04-25T11:41:57.441Z,-68
2019-04-25T11:44:26.741Z,-68
2019-04-25T11:46:56.456Z,-68
2019-04-25T11:49:25.756Z,-68
2019-04-25T11:51:55.175Z,-68
2019-04-25T11:54:24.458Z,-68
2019-04-25T11:56:54.760Z,-68
2019-04-25T11:59:25.328Z,-68
2019-04-25T12:01:57.148Z,-68
2019-04-25T12:04:25.747Z,-68
2019-04-25T12:06:55.269Z,-68
2019-04-25T12:09:24.573Z,-68
2019-04-25T12:11:54.534Z,-68
2019-04-25T12:14:25.202Z,-68
2019-04-25T12:16:56.128Z,-68
2019-04-25T12:19:35.010Z,-68
2019-04-25T12:21:58.177Z,-68
2019-04-25T12:24:27.949Z,-67
2019-04-25T12:26:57.452Z,-67
2019-04-25T12:29:26.765Z,-67
2019-04-25T12:31:56.357Z,-68
2019-04-25T12:34:25.972Z,-67
2019-04-25T12:36:55.284Z,-67
2019-04-25T12:39:24.877Z,-68
2019-04-25T12:41:55.723Z,-67
2019-04-25T12:44:26.775Z,-67
2019-04-25T12:46:57.817Z,-67
2019-04-25T12:49:27.118Z,-67
2019-04-25T12:51:56.726Z,-67
2019-04-25T12:54:26.540Z,-67
2019-04-25T12:56:55.908Z,-67
2019-04-25T12:59:25.433Z,-67
2019-04-25T13:01:55.906Z,-67
2019-04-25T13:04:25.471Z,-67
2019-04-25T13:06:55.935Z,-67
2019-04-25T13:09:25.535Z,-67
2019-04-25T13:11:55.016Z,-67
2019-04-25T13:14:25.129Z,-67
2019-04-25T13:16:54.750Z,-67
2019-04-25T13:19:26.369Z,-67
2019-04-25T13:21:55.000Z,-67
2019-04-25T13:24:24.407Z,-67
2019-04-25T13:26:56.877Z,-69
2019-04-25T13:29:33.871Z,-69
2019-04-25T13:32:11.869Z,-69
2019-04-25T13:34:45.704Z,-70
2019-04-25T13:37:16.474Z,-69
2019-04-25T13:39:45.958Z,-70
2019-04-25T13:42:15.228Z,-69
2019-04-25T13:44:44.900Z,-69
2019-04-25T13:47:14.421Z,-69
2019-04-25T13:49:44.039Z,-69
2019-04-25T13:52:13.859Z,-70
2019-04-25T13:54:43.579Z,-70
2019-04-25T13:57:13.345Z,-67
2019-04-25T13:59:44.120Z,-68
2019-04-25T14:02:14.149Z,-68
2019-04-25T14:04:44.246Z,-68
2019-04-25T14:07:14.364Z,-68
2019-04-25T14:09:44.736Z,-68
2019-04-25T14:12:14.721Z,-68
2019-04-25T14:14:44.202Z,-68
2019-04-25T14:17:15.845Z,-68
2019-04-25T14:19:54.110Z,-68
2019-04-25T14:22:23.602Z,-67
2019-04-25T14:24:54.100Z,-68
2019-04-25T14:27:25.060Z,-68
2019-04-25T14:29:54.774Z,-68
2019-04-25T14:32:27.178Z,-68
2019-04-25T14:34:55.525Z,-68
2019-04-25T14:37:28.200Z,-68
2019-04-25T14:39:55.780Z,-68
2019-04-25T14:42:26.449Z,-69
2019-04-25T14:44:55.712Z,-68
2019-04-25T14:47:25.411Z,-68
2019-04-25T14:49:54.622Z,-68
2019-04-25T14:52:24.503Z,-68
2019-04-25T14:54:55.480Z,-68
2019-04-25T14:57:26.609Z,-68
2019-04-25T14:59:55.928Z,-68
2019-04-25T15:02:27.784Z,-68
2019-04-25T15:04:57.284Z,-67
2019-04-25T15:07:26.513Z,-67
2019-04-25T15:09:55.902Z,-70
2019-04-25T15:12:25.214Z,-69
2019-04-25T15:14:54.355Z,-69
2019-04-25T15:17:23.749Z,-67
2019-04-25T15:19:53.202Z,-67
2019-04-25T15:22:23.212Z,-67
2019-04-25T15:24:53.749Z,-67
2019-04-25T15:27:24.146Z,-67
2019-04-25T15:29:54.083Z,-67
2019-04-25T15:32:25.076Z,-66
2019-04-25T15:34:57.200Z,-67
2019-04-25T15:37:28.349Z,-67
2019-04-25T15:39:59.427Z,-67
2019-04-25T15:42:30.552Z,-67
2019-04-25T15:45:01.483Z,-68
2019-04-25T15:47:32.610Z,-68
2019-04-25T15:50:02.017Z,-68
2019-04-25T15:52:31.233Z,-67
2019-04-25T15:55:06.889Z,-67
2019-04-25T15:57:31.285Z,-70
2019-04-25T16:00:00.678Z,-68
2019-04-25T16:02:30.282Z,-67
2019-04-25T16:04:59.579Z,-67
2019-04-25T16:07:29.177Z,-67
2019-04-25T16:09:58.684Z,-68
2019-04-25T16:12:28.726Z,-68
2019-04-25T16:14:58.118Z,-68
2019-04-25T16:17:28.514Z,-68
2019-04-25T16:19:58.076Z,-68
2019-04-25T16:22:27.993Z,-68
2019-04-25T16:24:58.397Z,-67
2019-04-25T16:27:28.975Z,-67
2019-04-25T16:29:58.435Z,-67
2019-04-25T16:32:28.162Z,-67
2019-04-25T16:34:58.365Z,-67
2019-04-25T16:37:29.097Z,-67
2019-04-25T16:40:00.250Z,-68
2019-04-25T16:42:30.256Z,-68
2019-04-25T16:45:12.985Z,-68
2019-04-25T16:47:42.180Z,-68
2019-04-25T16:50:13.414Z,-68
2019-04-25T16:52:42.768Z,-68
2019-04-25T16:55:12.841Z,-68
2019-04-25T16:57:42.339Z,-68
2019-04-25T17:00:37.144Z,-68
2019-04-25T17:03:06.456Z,-68
2019-04-25T17:05:37.035Z,-66
2019-04-25T17:08:06.697Z,-68
2019-04-25T17:10:36.911Z,-68
2019-04-25T17:13:07.144Z,-67
2019-04-25T17:15:44.317Z,-67
2019-04-25T17:18:20.905Z,-67
2019-04-25T17:20:54.602Z,-67
2019-04-25T17:23:24.014Z,-68
2019-04-25T17:25:53.415Z,-66
2019-04-25T17:28:22.813Z,-67
2019-04-25T17:30:56.925Z,-67
2019-04-25T17:33:37.622Z,-67
2019-04-25T17:36:15.103Z,-67
2019-04-25T17:38:52.898Z,-67
2019-04-25T17:41:22.199Z,-67
2019-04-25T17:43:51.399Z,-67
2019-04-25T17:46:32.747Z,-67
2019-04-25T17:49:03.110Z,-67
2019-04-25T17:51:33.378Z,-67
2019-04-25T17:54:04.770Z,-67
2019-04-25T17:56:34.471Z,-67
2019-04-25T17:59:03.917Z,-67
2019-04-25T18:01:34.071Z,-67
2019-04-25T18:04:04.982Z,-67
2019-04-25T18:06:34.378Z,-65
2019-04-25T18:09:05.865Z,-67
2019-04-25T18:11:36.017Z,-67
2019-04-25T18:14:05.851Z,-69
2019-04-25T18:16:37.016Z,-69
2019-04-25T18:19:11.820Z,-69
2019-04-25T18:21:45.018Z,-70
2019-04-25T18:24:32.456Z,-69
2019-04-25T18:27:03.699Z,-69
2019-04-25T18:29:33.207Z,-69
2019-04-25T18:32:02.716Z,-69
2019-04-25T18:34:42.456Z,-69
2019-04-25T18:37:38.507Z,-69
2019-04-25T18:40:10.639Z,-69
2019-04-25T18:43:08.408Z,-69
2019-04-25T18:45:57.589Z,-69
2019-04-25T18:48:29.401Z,-69
2019-04-25T18:50:59.061Z,-69
2019-04-25T18:53:43.055Z,-69
2019-04-25T18:56:19.991Z,-69
2019-04-25T18:59:07.005Z,-70
2019-04-25T19:01:41.673Z,-70
2019-04-25T19:04:12.590Z,-70
2019-04-25T19:06:51.897Z,-70
2019-04-25T19:09:13.157Z,-70
2019-04-25T19:11:42.909Z,-70
2019-04-25T19:14:12.446Z,-70
2019-04-25T19:16:42.941Z,-70
2019-04-25T19:19:12.280Z,-70
2019-04-25T19:21:41.830Z,-70
2019-04-25T19:24:11.087Z,-70
2019-04-25T19:26:42.245Z,-70
2019-04-25T19:29:11.419Z,-69
2019-04-25T19:31:40.916Z,-70
2019-04-25T19:34:10.833Z,-69
2019-04-25T19:36:41.401Z,-70
2019-04-25T19:39:10.768Z,-70
2019-04-25T19:41:51.828Z,-70
2019-04-25T19:44:25.663Z,-69
2019-04-25T19:46:55.268Z,-68
2019-04-25T19:49:24.470Z,-69
2019-04-25T19:51:53.877Z,-69
2019-04-25T19:54:23.376Z,-69
2019-04-25T19:56:52.583Z,-69
2019-04-25T19:59:23.507Z,-69
2019-04-25T20:01:54.754Z,-69
2019-04-25T20:07:26.703Z,-69
2019-04-25T20:10:06.797Z,-69
2019-04-25T20:12:37.948Z,-69
2019-04-25T20:15:08.645Z,-69
2019-04-25T20:17:38.086Z,-69
2019-04-25T20:20:07.700Z,-69
2019-04-25T20:22:37.208Z,-69
2019-04-25T20:25:07.750Z,-68
2019-04-25T20:27:37.228Z,-69
2019-04-25T20:30:07.769Z,-68
2019-04-25T20:32:37.273Z,-70
2019-04-25T20:35:07.041Z,-71
2019-04-25T20:37:36.473Z,-71
2019-04-25T20:40:07.560Z,-68
2019-04-25T20:42:36.932Z,-67
2019-04-25T20:45:08.083Z,-67
2019-04-25T20:47:37.480Z,-67
2019-04-25T20:50:06.898Z,-67
2019-04-25T20:52:38.168Z,-67
2019-04-25T20:55:09.068Z,-67
2019-04-25T20:57:38.390Z,-67
2019-04-25T21:00:09.737Z,-67
2019-04-25T21:02:39.231Z,-67
2019-04-25T21:05:08.749Z,-67
2019-04-25T21:07:37.948Z,-67
2019-04-25T21:10:08.097Z,-67
2019-04-25T21:12:40.444Z,-67
2019-04-25T21:15:15.156Z,-67
2019-04-25T21:17:46.110Z,-68
2019-04-25T21:20:15.607Z,-68
2019-04-25T21:22:45.021Z,-67
2019-04-25T21:25:15.030Z,-68
2019-04-25T21:27:44.531Z,-67
2019-04-25T21:30:14.669Z,-67
2019-04-25T21:32:45.701Z,-67
2019-04-25T21:35:15.729Z,-67
2019-04-25T21:37:44.930Z,-67
2019-04-25T21:40:19.462Z,-67
2019-04-25T21:43:03.192Z,-68
2019-04-25T21:45:33.407Z,-68
2019-04-25T21:48:03.128Z,-67
2019-04-25T21:50:33.135Z,-67
2019-04-25T21:53:03.245Z,-67
2019-04-25T21:55:33.192Z,-68
2019-04-25T21:58:02.941Z,-67
2019-04-25T22:00:37.416Z,-67
2019-04-25T22:03:07.524Z,-67
2019-04-25T22:05:37.338Z,-67
2019-04-25T22:08:06.848Z,-67
2019-04-25T22:10:43.429Z,-67
2019-04-25T22:13:16.744Z,-67
2019-04-25T22:15:44.082Z,-67
2019-04-25T22:18:13.694Z,-67
2019-04-25T22:20:43.288Z,-67
2019-04-25T22:23:13.011Z,-67
2019-04-25T22:25:42.705Z,-67
2019-04-25T22:28:12.330Z,-67
2019-04-25T22:30:43.679Z,-67
2019-04-25T22:33:31.099Z,-68
2019-04-25T22:36:02.200Z,-67
2019-04-25T22:38:31.552Z,-67
2019-04-25T22:41:01.468Z,-67
2019-04-25T22:43:32.908Z,-67
2019-04-25T22:46:02.392Z,-67
2019-04-25T22:48:50.367Z,-67
2019-04-25T22:51:20.171Z,-67
2019-04-25T22:53:49.992Z,-67
2019-04-25T22:56:19.293Z,-67
2019-04-25T22:58:48.597Z,-67
2019-04-25T23:01:20.036Z,-67
2019-04-25T23:03:51.076Z,-67
2019-04-25T23:06:20.687Z,-67
2019-04-25T23:08:50.191Z,-67
2019-04-25T23:11:19.723Z,-68
2019-04-25T23:13:50.654Z,-67
2019-04-25T23:16:20.158Z,-67
2019-04-25T23:18:49.458Z,-67
2019-04-25T23:21:18.686Z,-67
2019-04-25T23:23:48.149Z,-67
2019-04-25T23:26:21.752Z,-67
2019-04-25T23:28:52.916Z,-67
2019-04-25T23:31:24.052Z,-67
2019-04-25T23:33:53.668Z,-67
2019-04-25T23:36:23.066Z,-68
2019-04-25T23:38:52.678Z,-67
2019-04-25T23:41:22.893Z,-67
2019-04-25T23:43:52.406Z,-67
2019-04-25T23:46:21.913Z,-67
2019-04-25T23:48:51.410Z,-67
2019-04-25T23:51:20.618Z,-67
2019-04-25T23:53:51.975Z,-67
2019-04-25T23:56:21.169Z,-67
2019-04-25T23:58:51.386Z,-67
